sensor_id;sensor_type;location;lat;lon;timestamp;P1;durP1;ratioP1;P2;durP2;ratioP2
65583;SDS011;62116;43.582;1.470;2023-04-25T00:00:20;3.92;;;2.13;;
65583;SDS011;62116;43.582;1.470;2023-04-25T00:02:45;6.13;;;1.73;;
65583;SDS011;62116;43.582;1.470;2023-04-25T00:05:11;3.05;;;1.92;;
65583;SDS011;62116;43.582;1.470;2023-04-25T00:07:37;5.20;;;1.98;;
65583;SDS011;62116;43.582;1.470;2023-04-25T00:10:03;3.17;;;1.98;;
65583;SDS011;62116;43.582;1.470;2023-04-25T00:12:29;3.60;;;1.83;;
65583;SDS011;62116;43.582;1.470;2023-04-25T00:14:54;2.75;;;1.85;;
65583;SDS011;62116;43.582;1.470;2023-04-25T00:17:22;3.88;;;1.85;;
65583;SDS011;62116;43.582;1.470;2023-04-25T00:19:49;5.43;;;2.25;;
65583;SDS011;62116;43.582;1.470;2023-04-25T00:22:15;4.15;;;2.00;;
65583;SDS011;62116;43.582;1.470;2023-04-25T00:24:41;3.65;;;1.88;;
65583;SDS011;62116;43.582;1.470;2023-04-25T00:27:07;3.67;;;1.90;;
65583;SDS011;62116;43.582;1.470;2023-04-25T00:29:32;4.30;;;2.30;;
65583;SDS011;62116;43.582;1.470;2023-04-25T00:31:58;3.28;;;1.95;;
65583;SDS011;62116;43.582;1.470;2023-04-25T00:34:23;3.38;;;1.95;;
65583;SDS011;62116;43.582;1.470;2023-04-25T00:36:49;5.25;;;2.03;;
65583;SDS011;62116;43.582;1.470;2023-04-25T00:39:14;4.68;;;2.05;;
65583;SDS011;62116;43.582;1.470;2023-04-25T00:41:39;5.93;;;2.22;;
65583;SDS011;62116;43.582;1.470;2023-04-25T00:44:05;2.90;;;1.80;;
65583;SDS011;62116;43.582;1.470;2023-04-25T00:46:35;3.80;;;2.20;;
65583;SDS011;62116;43.582;1.470;2023-04-25T00:49:00;4.50;;;2.10;;
65583;SDS011;62116;43.582;1.470;2023-04-25T00:51:26;3.90;;;2.08;;
65583;SDS011;62116;43.582;1.470;2023-04-25T00:53:51;4.57;;;2.25;;
65583;SDS011;62116;43.582;1.470;2023-04-25T00:56:17;4.75;;;2.30;;
65583;SDS011;62116;43.582;1.470;2023-04-25T00:58:43;4.45;;;1.80;;
65583;SDS011;62116;43.582;1.470;2023-04-25T01:01:08;3.13;;;1.90;;
65583;SDS011;62116;43.582;1.470;2023-04-25T01:03:35;3.30;;;1.85;;
65583;SDS011;62116;43.582;1.470;2023-04-25T01:08:32;6.45;;;2.20;;
65583;SDS011;62116;43.582;1.470;2023-04-25T01:10:58;4.03;;;2.05;;
65583;SDS011;62116;43.582;1.470;2023-04-25T01:13:24;2.83;;;1.90;;
65583;SDS011;62116;43.582;1.470;2023-04-25T01:15:49;3.65;;;1.92;;
65583;SDS011;62116;43.582;1.470;2023-04-25T01:18:15;2.72;;;1.70;;
65583;SDS011;62116;43.582;1.470;2023-04-25T01:20:41;3.55;;;1.67;;
65583;SDS011;62116;43.582;1.470;2023-04-25T01:23:07;2.70;;;1.50;;
65583;SDS011;62116;43.582;1.470;2023-04-25T01:25:33;2.65;;;1.45;;
65583;SDS011;62116;43.582;1.470;2023-04-25T01:27:58;2.53;;;1.30;;
65583;SDS011;62116;43.582;1.470;2023-04-25T01:30:25;2.92;;;1.48;;
65583;SDS011;62116;43.582;1.470;2023-04-25T01:32:52;1.90;;;1.20;;
65583;SDS011;62116;43.582;1.470;2023-04-25T01:35:20;1.50;;;1.08;;
65583;SDS011;62116;43.582;1.470;2023-04-25T01:37:45;3.03;;;1.00;;
65583;SDS011;62116;43.582;1.470;2023-04-25T01:40:11;1.83;;;1.00;;
65583;SDS011;62116;43.582;1.470;2023-04-25T01:42:38;1.55;;;0.90;;
65583;SDS011;62116;43.582;1.470;2023-04-25T01:45:06;2.53;;;1.10;;
65583;SDS011;62116;43.582;1.470;2023-04-25T01:47:32;1.10;;;0.88;;
65583;SDS011;62116;43.582;1.470;2023-04-25T01:50:00;1.50;;;0.80;;
65583;SDS011;62116;43.582;1.470;2023-04-25T01:52:25;2.13;;;0.80;;
65583;SDS011;62116;43.582;1.470;2023-04-25T01:54:51;1.40;;;0.80;;
65583;SDS011;62116;43.582;1.470;2023-04-25T01:57:17;2.05;;;0.70;;
65583;SDS011;62116;43.582;1.470;2023-04-25T01:59:42;0.98;;;0.60;;
65583;SDS011;62116;43.582;1.470;2023-04-25T02:02:08;1.55;;;0.70;;
65583;SDS011;62116;43.582;1.470;2023-04-25T02:04:34;1.58;;;0.50;;
65583;SDS011;62116;43.582;1.470;2023-04-25T02:06:59;0.60;;;0.50;;
65583;SDS011;62116;43.582;1.470;2023-04-25T02:09:25;0.98;;;0.50;;
65583;SDS011;62116;43.582;1.470;2023-04-25T02:11:50;1.00;;;0.52;;
65583;SDS011;62116;43.582;1.470;2023-04-25T02:14:15;1.42;;;0.43;;
65583;SDS011;62116;43.582;1.470;2023-04-25T02:16:41;0.52;;;0.47;;
65583;SDS011;62116;43.582;1.470;2023-04-25T02:19:08;0.30;;;0.30;;
65583;SDS011;62116;43.582;1.470;2023-04-25T02:21:35;0.30;;;0.30;;
65583;SDS011;62116;43.582;1.470;2023-04-25T02:24:00;2.20;;;0.60;;
65583;SDS011;62116;43.582;1.470;2023-04-25T02:26:26;1.15;;;0.52;;
65583;SDS011;62116;43.582;1.470;2023-04-25T02:28:51;2.90;;;0.47;;
65583;SDS011;62116;43.582;1.470;2023-04-25T02:31:17;0.43;;;0.30;;
65583;SDS011;62116;43.582;1.470;2023-04-25T02:33:42;0.70;;;0.22;;
65583;SDS011;62116;43.582;1.470;2023-04-25T02:36:08;0.70;;;0.30;;
65583;SDS011;62116;43.582;1.470;2023-04-25T02:38:33;0.35;;;0.35;;
65583;SDS011;62116;43.582;1.470;2023-04-25T02:40:59;1.23;;;0.40;;
65583;SDS011;62116;43.582;1.470;2023-04-25T02:43:24;0.40;;;0.30;;
65583;SDS011;62116;43.582;1.470;2023-04-25T02:45:50;0.68;;;0.45;;
65583;SDS011;62116;43.582;1.470;2023-04-25T02:48:15;0.65;;;0.30;;
65583;SDS011;62116;43.582;1.470;2023-04-25T02:50:41;0.93;;;0.43;;
65583;SDS011;62116;43.582;1.470;2023-04-25T02:53:06;0.30;;;0.30;;
65583;SDS011;62116;43.582;1.470;2023-04-25T02:55:31;0.45;;;0.32;;
65583;SDS011;62116;43.582;1.470;2023-04-25T02:57:57;0.30;;;0.30;;
65583;SDS011;62116;43.582;1.470;2023-04-25T03:00:22;0.30;;;0.30;;
65583;SDS011;62116;43.582;1.470;2023-04-25T03:02:48;0.52;;;0.22;;
65583;SDS011;62116;43.582;1.470;2023-04-25T03:05:13;0.38;;;0.28;;
65583;SDS011;62116;43.582;1.470;2023-04-25T03:07:39;0.85;;;0.30;;
65583;SDS011;62116;43.582;1.470;2023-04-25T03:10:05;1.10;;;0.98;;
65583;SDS011;62116;43.582;1.470;2023-04-25T03:12:32;0.68;;;0.22;;
65583;SDS011;62116;43.582;1.470;2023-04-25T03:14:57;0.30;;;0.30;;
65583;SDS011;62116;43.582;1.470;2023-04-25T03:17:22;0.98;;;0.30;;
65583;SDS011;62116;43.582;1.470;2023-04-25T03:19:48;0.13;;;0.13;;
65583;SDS011;62116;43.582;1.470;2023-04-25T03:22:13;0.30;;;0.30;;
65583;SDS011;62116;43.582;1.470;2023-04-25T03:24:38;0.25;;;0.25;;
65583;SDS011;62116;43.582;1.470;2023-04-25T03:27:05;0.60;;;0.30;;
65583;SDS011;62116;43.582;1.470;2023-04-25T03:29:30;0.30;;;0.30;;
65583;SDS011;62116;43.582;1.470;2023-04-25T03:31:55;1.95;;;0.32;;
65583;SDS011;62116;43.582;1.470;2023-04-25T03:34:21;0.55;;;0.50;;
65583;SDS011;62116;43.582;1.470;2023-04-25T03:36:49;0.63;;;0.30;;
65583;SDS011;62116;43.582;1.470;2023-04-25T03:39:14;0.65;;;0.30;;
65583;SDS011;62116;43.582;1.470;2023-04-25T03:41:40;0.57;;;0.22;;
65583;SDS011;62116;43.582;1.470;2023-04-25T03:44:05;0.63;;;0.30;;
65583;SDS011;62116;43.582;1.470;2023-04-25T03:46:31;1.73;;;0.30;;
65583;SDS011;62116;43.582;1.470;2023-04-25T03:48:56;0.55;;;0.40;;
65583;SDS011;62116;43.582;1.470;2023-04-25T03:51:22;4.03;;;0.30;;
65583;SDS011;62116;43.582;1.470;2023-04-25T03:53:47;0.60;;;0.35;;
65583;SDS011;62116;43.582;1.470;2023-04-25T03:56:12;0.82;;;0.40;;
65583;SDS011;62116;43.582;1.470;2023-04-25T03:58:38;0.47;;;0.30;;
65583;SDS011;62116;43.582;1.470;2023-04-25T04:01:03;1.23;;;0.60;;
65583;SDS011;62116;43.582;1.470;2023-04-25T04:03:32;1.30;;;0.40;;
65583;SDS011;62116;43.582;1.470;2023-04-25T04:05:59;1.58;;;0.40;;
65583;SDS011;62116;43.582;1.470;2023-04-25T04:08:24;0.45;;;0.30;;
65583;SDS011;62116;43.582;1.470;2023-04-25T04:10:50;0.52;;;0.30;;
65583;SDS011;62116;43.582;1.470;2023-04-25T04:13:15;3.30;;;0.50;;
65583;SDS011;62116;43.582;1.470;2023-04-25T04:15:40;0.85;;;0.40;;
65583;SDS011;62116;43.582;1.470;2023-04-25T04:18:06;0.55;;;0.30;;
65583;SDS011;62116;43.582;1.470;2023-04-25T04:20:31;1.08;;;0.40;;
65583;SDS011;62116;43.582;1.470;2023-04-25T04:22:57;1.05;;;0.40;;
65583;SDS011;62116;43.582;1.470;2023-04-25T04:25:22;0.88;;;0.38;;
65583;SDS011;62116;43.582;1.470;2023-04-25T04:27:49;0.47;;;0.47;;
65583;SDS011;62116;43.582;1.470;2023-04-25T04:30:16;1.55;;;0.50;;
65583;SDS011;62116;43.582;1.470;2023-04-25T04:32:42;1.20;;;0.52;;
65583;SDS011;62116;43.582;1.470;2023-04-25T04:35:08;1.45;;;0.40;;
65583;SDS011;62116;43.582;1.470;2023-04-25T04:37:33;0.95;;;0.55;;
65583;SDS011;62116;43.582;1.470;2023-04-25T04:39:59;1.10;;;0.60;;
65583;SDS011;62116;43.582;1.470;2023-04-25T04:42:24;0.77;;;0.50;;
65583;SDS011;62116;43.582;1.470;2023-04-25T04:44:50;1.90;;;0.60;;
65583;SDS011;62116;43.582;1.470;2023-04-25T04:47:17;0.50;;;0.50;;
65583;SDS011;62116;43.582;1.470;2023-04-25T04:49:42;1.13;;;0.50;;
65583;SDS011;62116;43.582;1.470;2023-04-25T04:52:07;0.73;;;0.50;;
65583;SDS011;62116;43.582;1.470;2023-04-25T04:54:33;2.25;;;0.50;;
65583;SDS011;62116;43.582;1.470;2023-04-25T04:57:00;0.85;;;0.60;;
65583;SDS011;62116;43.582;1.470;2023-04-25T04:59:25;1.17;;;0.52;;
65583;SDS011;62116;43.582;1.470;2023-04-25T05:01:52;1.27;;;0.60;;
65583;SDS011;62116;43.582;1.470;2023-04-25T05:04:17;1.10;;;0.63;;
65583;SDS011;62116;43.582;1.470;2023-04-25T05:06:42;1.25;;;0.57;;
65583;SDS011;62116;43.582;1.470;2023-04-25T05:09:09;1.48;;;0.75;;
65583;SDS011;62116;43.582;1.470;2023-04-25T05:11:34;0.50;;;0.50;;
65583;SDS011;62116;43.582;1.470;2023-04-25T05:14:00;1.45;;;0.70;;
65583;SDS011;62116;43.582;1.470;2023-04-25T05:16:25;1.40;;;0.75;;
65583;SDS011;62116;43.582;1.470;2023-04-25T05:18:50;2.08;;;0.95;;
65583;SDS011;62116;43.582;1.470;2023-04-25T05:21:16;1.27;;;0.70;;
65583;SDS011;62116;43.582;1.470;2023-04-25T05:23:41;0.98;;;0.73;;
65583;SDS011;62116;43.582;1.470;2023-04-25T05:26:07;0.75;;;0.70;;
65583;SDS011;62116;43.582;1.470;2023-04-25T05:28:38;1.50;;;0.75;;
65583;SDS011;62116;43.582;1.470;2023-04-25T05:31:07;1.55;;;0.80;;
65583;SDS011;62116;43.582;1.470;2023-04-25T05:33:34;1.38;;;0.73;;
65583;SDS011;62116;43.582;1.470;2023-04-25T05:36:00;1.73;;;0.70;;
65583;SDS011;62116;43.582;1.470;2023-04-25T05:38:25;1.75;;;0.80;;
65583;SDS011;62116;43.582;1.470;2023-04-25T05:40:51;1.58;;;0.90;;
65583;SDS011;62116;43.582;1.470;2023-04-25T05:43:16;2.28;;;0.70;;
65583;SDS011;62116;43.582;1.470;2023-04-25T05:45:42;3.08;;;0.90;;
65583;SDS011;62116;43.582;1.470;2023-04-25T05:48:07;0.90;;;0.70;;
65583;SDS011;62116;43.582;1.470;2023-04-25T05:50:32;1.00;;;0.77;;
65583;SDS011;62116;43.582;1.470;2023-04-25T05:52:58;1.77;;;0.80;;
65583;SDS011;62116;43.582;1.470;2023-04-25T05:55:23;2.00;;;1.02;;
65583;SDS011;62116;43.582;1.470;2023-04-25T05:57:49;1.38;;;0.98;;
65583;SDS011;62116;43.582;1.470;2023-04-25T06:00:14;1.38;;;0.90;;
65583;SDS011;62116;43.582;1.470;2023-04-25T06:02:40;1.23;;;0.82;;
65583;SDS011;62116;43.582;1.470;2023-04-25T06:05:06;1.38;;;0.70;;
65583;SDS011;62116;43.582;1.470;2023-04-25T06:07:32;1.15;;;0.90;;
65583;SDS011;62116;43.582;1.470;2023-04-25T06:09:58;1.70;;;0.90;;
65583;SDS011;62116;43.582;1.470;2023-04-25T06:12:25;1.90;;;0.90;;
65583;SDS011;62116;43.582;1.470;2023-04-25T06:14:50;1.92;;;0.90;;
65583;SDS011;62116;43.582;1.470;2023-04-25T06:17:15;1.73;;;0.80;;
65583;SDS011;62116;43.582;1.470;2023-04-25T06:19:41;1.17;;;0.77;;
65583;SDS011;62116;43.582;1.470;2023-04-25T06:22:06;1.77;;;0.85;;
65583;SDS011;62116;43.582;1.470;2023-04-25T06:24:32;0.93;;;0.77;;
65583;SDS011;62116;43.582;1.470;2023-04-25T06:26:57;1.75;;;0.90;;
65583;SDS011;62116;43.582;1.470;2023-04-25T06:29:23;1.63;;;0.70;;
65583;SDS011;62116;43.582;1.470;2023-04-25T06:31:48;0.98;;;0.70;;
65583;SDS011;62116;43.582;1.470;2023-04-25T06:34:14;1.90;;;0.90;;
65583;SDS011;62116;43.582;1.470;2023-04-25T06:36:40;0.98;;;0.80;;
65583;SDS011;62116;43.582;1.470;2023-04-25T06:39:06;2.78;;;0.80;;
65583;SDS011;62116;43.582;1.470;2023-04-25T06:41:32;0.98;;;0.80;;
65583;SDS011;62116;43.582;1.470;2023-04-25T06:43:58;1.13;;;0.77;;
65583;SDS011;62116;43.582;1.470;2023-04-25T06:46:23;1.00;;;0.70;;
65583;SDS011;62116;43.582;1.470;2023-04-25T06:48:48;1.30;;;0.80;;
65583;SDS011;62116;43.582;1.470;2023-04-25T06:51:14;1.20;;;0.75;;
65583;SDS011;62116;43.582;1.470;2023-04-25T06:53:39;3.33;;;0.90;;
65583;SDS011;62116;43.582;1.470;2023-04-25T06:56:05;0.68;;;0.68;;
65583;SDS011;62116;43.582;1.470;2023-04-25T06:58:31;1.00;;;0.85;;
65583;SDS011;62116;43.582;1.470;2023-04-25T07:00:56;3.08;;;0.80;;
65583;SDS011;62116;43.582;1.470;2023-04-25T07:03:22;2.42;;;0.80;;
65583;SDS011;62116;43.582;1.470;2023-04-25T07:05:47;1.50;;;0.90;;
65583;SDS011;62116;43.582;1.470;2023-04-25T07:08:12;3.15;;;0.77;;
65583;SDS011;62116;43.582;1.470;2023-04-25T07:10:38;3.03;;;1.00;;
65583;SDS011;62116;43.582;1.470;2023-04-25T07:13:03;1.45;;;0.80;;
65583;SDS011;62116;43.582;1.470;2023-04-25T07:15:29;3.60;;;0.88;;
65583;SDS011;62116;43.582;1.470;2023-04-25T07:17:54;4.00;;;1.02;;
65583;SDS011;62116;43.582;1.470;2023-04-25T07:20:20;2.05;;;1.10;;
65583;SDS011;62116;43.582;1.470;2023-04-25T07:22:45;1.55;;;0.88;;
65583;SDS011;62116;43.582;1.470;2023-04-25T07:25:11;0.95;;;0.70;;
65583;SDS011;62116;43.582;1.470;2023-04-25T07:27:36;1.67;;;0.90;;
65583;SDS011;62116;43.582;1.470;2023-04-25T07:30:02;2.35;;;0.80;;
65583;SDS011;62116;43.582;1.470;2023-04-25T07:32:29;2.60;;;0.50;;
65583;SDS011;62116;43.582;1.470;2023-04-25T07:34:54;0.90;;;0.40;;
65583;SDS011;62116;43.582;1.470;2023-04-25T07:37:20;1.63;;;0.40;;
65583;SDS011;62116;43.582;1.470;2023-04-25T07:39:45;0.40;;;0.35;;
65583;SDS011;62116;43.582;1.470;2023-04-25T07:42:11;0.63;;;0.30;;
65583;SDS011;62116;43.582;1.470;2023-04-25T07:44:37;0.73;;;0.40;;
65583;SDS011;62116;43.582;1.470;2023-04-25T07:47:06;0.30;;;0.30;;
65583;SDS011;62116;43.582;1.470;2023-04-25T07:49:33;0.57;;;0.20;;
65583;SDS011;62116;43.582;1.470;2023-04-25T07:52:02;0.70;;;0.30;;
65583;SDS011;62116;43.582;1.470;2023-04-25T07:54:28;0.68;;;0.40;;
65583;SDS011;62116;43.582;1.470;2023-04-25T07:56:54;1.25;;;0.60;;
65583;SDS011;62116;43.582;1.470;2023-04-25T07:59:20;1.17;;;0.65;;
65583;SDS011;62116;43.582;1.470;2023-04-25T08:01:46;2.33;;;0.60;;
65583;SDS011;62116;43.582;1.470;2023-04-25T08:04:12;1.15;;;0.50;;
65583;SDS011;62116;43.582;1.470;2023-04-25T08:06:37;1.05;;;0.50;;
65583;SDS011;62116;43.582;1.470;2023-04-25T08:09:02;2.28;;;0.63;;
65583;SDS011;62116;43.582;1.470;2023-04-25T08:11:29;1.42;;;0.60;;
65583;SDS011;62116;43.582;1.470;2023-04-25T08:13:54;1.50;;;0.80;;
65583;SDS011;62116;43.582;1.470;2023-04-25T08:16:20;1.00;;;0.50;;
65583;SDS011;62116;43.582;1.470;2023-04-25T08:18:45;3.17;;;0.82;;
65583;SDS011;62116;43.582;1.470;2023-04-25T08:21:11;2.15;;;0.45;;
65583;SDS011;62116;43.582;1.470;2023-04-25T08:23:37;1.02;;;0.60;;
65583;SDS011;62116;43.582;1.470;2023-04-25T08:26:03;1.10;;;0.50;;
65583;SDS011;62116;43.582;1.470;2023-04-25T08:28:29;2.35;;;0.50;;
65583;SDS011;62116;43.582;1.470;2023-04-25T08:30:55;3.47;;;0.57;;
65583;SDS011;62116;43.582;1.470;2023-04-25T08:33:20;0.98;;;0.52;;
65583;SDS011;62116;43.582;1.470;2023-04-25T08:35:46;0.82;;;0.40;;
65583;SDS011;62116;43.582;1.470;2023-04-25T08:38:11;1.58;;;0.80;;
65583;SDS011;62116;43.582;1.470;2023-04-25T08:40:37;1.17;;;0.70;;
65583;SDS011;62116;43.582;1.470;2023-04-25T08:43:03;1.98;;;0.55;;
65583;SDS011;62116;43.582;1.470;2023-04-25T08:45:31;0.60;;;0.50;;
65583;SDS011;62116;43.582;1.470;2023-04-25T08:47:57;1.40;;;0.80;;
65583;SDS011;62116;43.582;1.470;2023-04-25T08:50:23;1.38;;;0.80;;
65583;SDS011;62116;43.582;1.470;2023-04-25T08:52:51;0.88;;;0.52;;
65583;SDS011;62116;43.582;1.470;2023-04-25T08:55:19;1.15;;;0.50;;
65583;SDS011;62116;43.582;1.470;2023-04-25T08:57:46;0.88;;;0.55;;
65583;SDS011;62116;43.582;1.470;2023-04-25T09:00:12;0.93;;;0.50;;
65583;SDS011;62116;43.582;1.470;2023-04-25T09:02:40;1.48;;;0.50;;
65583;SDS011;62116;43.582;1.470;2023-04-25T09:05:07;1.00;;;0.40;;
65583;SDS011;62116;43.582;1.470;2023-04-25T09:07:37;1.58;;;0.60;;
65583;SDS011;62116;43.582;1.470;2023-04-25T09:10:02;2.33;;;0.65;;
65583;SDS011;62116;43.582;1.470;2023-04-25T09:12:28;0.98;;;0.60;;
65583;SDS011;62116;43.582;1.470;2023-04-25T09:15:01;1.20;;;0.60;;
65583;SDS011;62116;43.582;1.470;2023-04-25T09:17:29;0.88;;;0.40;;
65583;SDS011;62116;43.582;1.470;2023-04-25T09:19:54;0.57;;;0.30;;
65583;SDS011;62116;43.582;1.470;2023-04-25T09:22:20;0.80;;;0.40;;
65583;SDS011;62116;43.582;1.470;2023-04-25T09:24:47;1.20;;;0.50;;
65583;SDS011;62116;43.582;1.470;2023-04-25T09:27:18;0.75;;;0.40;;
65583;SDS011;62116;43.582;1.470;2023-04-25T09:29:44;1.23;;;0.50;;
65583;SDS011;62116;43.582;1.470;2023-04-25T09:32:12;1.08;;;0.35;;
65583;SDS011;62116;43.582;1.470;2023-04-25T09:34:41;0.88;;;0.35;;
65583;SDS011;62116;43.582;1.470;2023-04-25T09:37:08;1.60;;;0.50;;
65583;SDS011;62116;43.582;1.470;2023-04-25T09:39:36;0.40;;;0.30;;
65583;SDS011;62116;43.582;1.470;2023-04-25T09:42:03;0.57;;;0.35;;
65583;SDS011;62116;43.582;1.470;2023-04-25T09:44:29;1.27;;;0.60;;
65583;SDS011;62116;43.582;1.470;2023-04-25T09:46:54;0.68;;;0.50;;
65583;SDS011;62116;43.582;1.470;2023-04-25T09:49:20;1.15;;;0.57;;
65583;SDS011;62116;43.582;1.470;2023-04-25T09:51:55;1.00;;;0.50;;
65583;SDS011;62116;43.582;1.470;2023-04-25T09:54:22;0.73;;;0.40;;
65583;SDS011;62116;43.582;1.470;2023-04-25T09:56:48;0.70;;;0.50;;
65583;SDS011;62116;43.582;1.470;2023-04-25T09:59:16;2.58;;;0.70;;
65583;SDS011;62116;43.582;1.470;2023-04-25T10:01:48;1.00;;;0.50;;
65583;SDS011;62116;43.582;1.470;2023-04-25T10:04:16;3.60;;;0.68;;
65583;SDS011;62116;43.582;1.470;2023-04-25T10:06:51;1.42;;;0.63;;
65583;SDS011;62116;43.582;1.470;2023-04-25T10:09:21;2.08;;;0.70;;
65583;SDS011;62116;43.582;1.470;2023-04-25T10:11:51;0.98;;;0.60;;
65583;SDS011;62116;43.582;1.470;2023-04-25T10:14:18;0.77;;;0.60;;
65583;SDS011;62116;43.582;1.470;2023-04-25T10:16:44;3.10;;;0.70;;
65583;SDS011;62116;43.582;1.470;2023-04-25T10:19:10;1.20;;;0.70;;
65583;SDS011;62116;43.582;1.470;2023-04-25T10:21:40;0.95;;;0.68;;
65583;SDS011;62116;43.582;1.470;2023-04-25T10:24:13;1.10;;;0.70;;
65583;SDS011;62116;43.582;1.470;2023-04-25T10:26:39;2.83;;;0.80;;
65583;SDS011;62116;43.582;1.470;2023-04-25T10:29:05;0.73;;;0.70;;
65583;SDS011;62116;43.582;1.470;2023-04-25T10:31:30;0.73;;;0.70;;
65583;SDS011;62116;43.582;1.470;2023-04-25T10:33:56;3.13;;;0.63;;
65583;SDS011;62116;43.582;1.470;2023-04-25T10:36:22;1.52;;;0.70;;
65583;SDS011;62116;43.582;1.470;2023-04-25T10:38:50;0.52;;;0.50;;
65583;SDS011;62116;43.582;1.470;2023-04-25T10:41:17;0.80;;;0.60;;
65583;SDS011;62116;43.582;1.470;2023-04-25T10:43:44;1.63;;;0.88;;
65583;SDS011;62116;43.582;1.470;2023-04-25T10:46:17;1.10;;;0.70;;
65583;SDS011;62116;43.582;1.470;2023-04-25T10:48:54;0.77;;;0.60;;
65583;SDS011;62116;43.582;1.470;2023-04-25T10:51:22;1.58;;;0.90;;
65583;SDS011;62116;43.582;1.470;2023-04-25T10:56:21;1.35;;;0.80;;
65583;SDS011;62116;43.582;1.470;2023-04-25T10:58:47;0.57;;;0.57;;
65583;SDS011;62116;43.582;1.470;2023-04-25T11:01:14;2.00;;;0.90;;
65583;SDS011;62116;43.582;1.470;2023-04-25T11:03:56;1.33;;;0.93;;
65583;SDS011;62116;43.582;1.470;2023-04-25T11:06:23;0.90;;;0.70;;
65583;SDS011;62116;43.582;1.470;2023-04-25T11:09:02;1.20;;;0.80;;
65583;SDS011;62116;43.582;1.470;2023-04-25T11:11:36;1.45;;;0.90;;
65583;SDS011;62116;43.582;1.470;2023-04-25T11:14:01;1.05;;;0.70;;
65583;SDS011;62116;43.582;1.470;2023-04-25T11:16:27;2.42;;;1.00;;
65583;SDS011;62116;43.582;1.470;2023-04-25T11:18:52;2.35;;;0.70;;
65583;SDS011;62116;43.582;1.470;2023-04-25T11:21:18;3.60;;;0.80;;
65583;SDS011;62116;43.582;1.470;2023-04-25T11:23:46;0.73;;;0.52;;
65583;SDS011;62116;43.582;1.470;2023-04-25T11:26:12;1.13;;;0.70;;
65583;SDS011;62116;43.582;1.470;2023-04-25T11:28:39;0.68;;;0.55;;
65583;SDS011;62116;43.582;1.470;2023-04-25T11:31:04;1.13;;;0.70;;
65583;SDS011;62116;43.582;1.470;2023-04-25T11:33:30;1.15;;;0.70;;
65583;SDS011;62116;43.582;1.470;2023-04-25T11:35:55;1.35;;;0.80;;
65583;SDS011;62116;43.582;1.470;2023-04-25T11:38:22;1.75;;;0.80;;
65583;SDS011;62116;43.582;1.470;2023-04-25T11:40:51;2.53;;;1.00;;
65583;SDS011;62116;43.582;1.470;2023-04-25T11:43:17;0.93;;;0.75;;
65583;SDS011;62116;43.582;1.470;2023-04-25T11:45:46;2.25;;;0.80;;
65583;SDS011;62116;43.582;1.470;2023-04-25T11:48:13;1.38;;;0.70;;
65583;SDS011;62116;43.582;1.470;2023-04-25T11:50:41;1.00;;;0.60;;
65583;SDS011;62116;43.582;1.470;2023-04-25T11:53:07;1.17;;;0.73;;
65583;SDS011;62116;43.582;1.470;2023-04-25T11:55:33;0.82;;;0.70;;
65583;SDS011;62116;43.582;1.470;2023-04-25T11:57:59;1.88;;;0.95;;
65583;SDS011;62116;43.582;1.470;2023-04-25T12:00:25;1.40;;;0.70;;
65583;SDS011;62116;43.582;1.470;2023-04-25T12:02:55;1.00;;;0.63;;
65583;SDS011;62116;43.582;1.470;2023-04-25T12:05:29;1.40;;;0.80;;
65583;SDS011;62116;43.582;1.470;2023-04-25T12:07:58;1.30;;;0.57;;
65583;SDS011;62116;43.582;1.470;2023-04-25T12:10:34;0.75;;;0.50;;
65583;SDS011;62116;43.582;1.470;2023-04-25T12:13:18;0.98;;;0.50;;
65583;SDS011;62116;43.582;1.470;2023-04-25T12:15:45;2.17;;;0.70;;
65583;SDS011;62116;43.582;1.470;2023-04-25T12:18:10;2.47;;;0.70;;
65583;SDS011;62116;43.582;1.470;2023-04-25T12:20:36;0.95;;;0.60;;
65583;SDS011;62116;43.582;1.470;2023-04-25T12:23:01;1.10;;;0.73;;
65583;SDS011;62116;43.582;1.470;2023-04-25T12:28:18;1.30;;;0.80;;
65583;SDS011;62116;43.582;1.470;2023-04-25T12:31:01;1.20;;;0.77;;
65583;SDS011;62116;43.582;1.470;2023-04-25T12:33:30;1.10;;;0.80;;
65583;SDS011;62116;43.582;1.470;2023-04-25T12:35:56;1.88;;;1.00;;
65583;SDS011;62116;43.582;1.470;2023-04-25T12:38:27;1.17;;;0.85;;
65583;SDS011;62116;43.582;1.470;2023-04-25T12:40:57;1.65;;;1.17;;
65583;SDS011;62116;43.582;1.470;2023-04-25T12:43:23;1.67;;;1.00;;
65583;SDS011;62116;43.582;1.470;2023-04-25T12:45:49;1.65;;;1.08;;
65583;SDS011;62116;43.582;1.470;2023-04-25T12:48:18;1.55;;;1.00;;
65583;SDS011;62116;43.582;1.470;2023-04-25T12:50:47;1.85;;;0.95;;
65583;SDS011;62116;43.582;1.470;2023-04-25T12:53:15;2.17;;;1.05;;
65583;SDS011;62116;43.582;1.470;2023-04-25T12:55:41;1.75;;;1.08;;
65583;SDS011;62116;43.582;1.470;2023-04-25T12:58:06;1.33;;;1.00;;
65583;SDS011;62116;43.582;1.470;2023-04-25T13:00:32;2.47;;;1.20;;
65583;SDS011;62116;43.582;1.470;2023-04-25T13:02:57;3.75;;;1.00;;
65583;SDS011;62116;43.582;1.470;2023-04-25T13:05:23;1.38;;;1.02;;
65583;SDS011;62116;43.582;1.470;2023-04-25T13:07:48;2.53;;;1.40;;
65583;SDS011;62116;43.582;1.470;2023-04-25T13:10:14;2.35;;;1.20;;
65583;SDS011;62116;43.582;1.470;2023-04-25T13:12:39;2.88;;;1.30;;
65583;SDS011;62116;43.582;1.470;2023-04-25T13:15:05;3.92;;;1.45;;
65583;SDS011;62116;43.582;1.470;2023-04-25T13:17:32;4.28;;;1.40;;
65583;SDS011;62116;43.582;1.470;2023-04-25T13:19:57;1.98;;;1.23;;
65583;SDS011;62116;43.582;1.470;2023-04-25T13:22:22;3.53;;;1.45;;
65583;SDS011;62116;43.582;1.470;2023-04-25T13:24:48;3.50;;;1.40;;
65583;SDS011;62116;43.582;1.470;2023-04-25T13:27:13;2.08;;;1.08;;
65583;SDS011;62116;43.582;1.470;2023-04-25T13:29:38;1.65;;;1.10;;
65583;SDS011;62116;43.582;1.470;2023-04-25T13:32:05;1.95;;;1.00;;
65583;SDS011;62116;43.582;1.470;2023-04-25T13:34:31;3.30;;;0.90;;
65583;SDS011;62116;43.582;1.470;2023-04-25T13:36:57;1.63;;;0.90;;
65583;SDS011;62116;43.582;1.470;2023-04-25T13:39:22;2.17;;;1.00;;
65583;SDS011;62116;43.582;1.470;2023-04-25T13:41:47;1.58;;;1.13;;
65583;SDS011;62116;43.582;1.470;2023-04-25T13:44:13;1.80;;;1.20;;
65583;SDS011;62116;43.582;1.470;2023-04-25T13:46:38;2.13;;;1.10;;
65583;SDS011;62116;43.582;1.470;2023-04-25T13:49:04;2.78;;;1.42;;
65583;SDS011;62116;43.582;1.470;2023-04-25T13:51:29;3.08;;;1.20;;
65583;SDS011;62116;43.582;1.470;2023-04-25T13:53:55;2.83;;;1.10;;
65583;SDS011;62116;43.582;1.470;2023-04-25T13:56:21;0.90;;;0.80;;
65583;SDS011;62116;43.582;1.470;2023-04-25T13:58:48;1.13;;;0.85;;
65583;SDS011;62116;43.582;1.470;2023-04-25T14:01:13;1.20;;;0.82;;
65583;SDS011;62116;43.582;1.470;2023-04-25T14:03:39;1.60;;;0.90;;
65583;SDS011;62116;43.582;1.470;2023-04-25T14:06:06;1.48;;;1.00;;
65583;SDS011;62116;43.582;1.470;2023-04-25T14:08:31;2.05;;;0.90;;
65583;SDS011;62116;43.582;1.470;2023-04-25T14:10:57;0.70;;;0.70;;
65583;SDS011;62116;43.582;1.470;2023-04-25T14:13:22;1.42;;;0.80;;
65583;SDS011;62116;43.582;1.470;2023-04-25T14:15:48;1.65;;;1.08;;
65583;SDS011;62116;43.582;1.470;2023-04-25T14:18:15;1.00;;;0.80;;
65583;SDS011;62116;43.582;1.470;2023-04-25T14:20:40;1.30;;;0.70;;
65583;SDS011;62116;43.582;1.470;2023-04-25T14:23:06;1.38;;;0.80;;
65583;SDS011;62116;43.582;1.470;2023-04-25T14:25:32;1.98;;;0.70;;
65583;SDS011;62116;43.582;1.470;2023-04-25T14:27:57;1.23;;;0.90;;
65583;SDS011;62116;43.582;1.470;2023-04-25T14:30:22;1.02;;;0.70;;
65583;SDS011;62116;43.582;1.470;2023-04-25T14:32:48;1.67;;;0.73;;
65583;SDS011;62116;43.582;1.470;2023-04-25T14:35:14;1.95;;;0.90;;
65583;SDS011;62116;43.582;1.470;2023-04-25T14:37:40;0.93;;;0.70;;
65583;SDS011;62116;43.582;1.470;2023-04-25T14:40:05;1.02;;;0.73;;
65583;SDS011;62116;43.582;1.470;2023-04-25T14:42:35;1.40;;;0.80;;
65583;SDS011;62116;43.582;1.470;2023-04-25T14:45:01;1.23;;;0.70;;
65583;SDS011;62116;43.582;1.470;2023-04-25T14:47:27;2.22;;;0.80;;
65583;SDS011;62116;43.582;1.470;2023-04-25T14:49:52;1.05;;;0.80;;